To NAV CANADA Home Page Login to a new session Search on AWWS site Feedback and Comments Disclaimer Vers la page française équivalente Tips FAQ What's new on the site To the Forecasts and Observations / NOTAM section To "File a Flight Plan" website Publications and other links Update of the User's profile FIC Telephone Numbers My Weather Data Folder Route Weather Data Regional Weather Data Local Weather Data To the Forecasts and Observations / NOTAM section
Request Generated 05/24/2016 at 11:44:13 UTC . Weather information available at that time is displayed.

METAR/TAF

HIGH LEVEL/AB    (show WxCam)

METAR CYOJ 241100Z AUTO 00000KT 9SM CLR 06/04 A2973 RMK SLP079=
METAR CYOJ 241000Z AUTO 16005KT 9SM CLR 05/04 A2972 RMK SLP076=
METAR CYOJ 240900Z AUTO 16002KT 9SM CLR 06/04 A2972 RMK SLP075=

TAF CYOJ 240638Z 2407/2419 VRB03KT P6SM SKC
FM241800 15008KT P6SM SCT220
RMK FCST BASED ON AUTO OBS. NXT FCST BY 241300Z=
Your time UTC time
Weather data provided by Environment Canada and NAV CANADA